Time;durP1;ratioP1;P1;durP2;ratioP2;P2;SDS_P1;SDS_P2;PMS_P1;PMS_P2;Temp;Humidity;BMP_temperature;BMP_pressure;BME280_temperature;BME280_humidity;BME280_pressure;Samples;Min_cycle;Max_cycle;Signal;HPM_P1;HPM_P2
2023/08/27 00:03:33;;;;;;;12.50;3.60;;;;;;;14.52;62.32;100348.38;10251592;29;20050;-59
2023/08/27 00:08:34;;;;;;;13.35;3.63;;;;;;;14.68;62.82;100392.69;10251811;29;20071;-59
2023/08/27 00:13:34;;;;;;;16.38;3.13;;;;;;;14.60;63.47;100392.88;10252193;29;20050;-59
2023/08/27 00:18:35;;;;;;;16.20;4.05;;;;;;;14.42;63.30;100331.81;10251295;29;20415;-59
2023/08/27 00:23:39;;;;;;;14.45;3.28;;;;;;;14.84;64.05;100384.41;10251316;29;20119;-59
2023/08/27 00:28:40;;;;;;;;;;;;;;;15.07;62.62;100385.97;10252103;29;20047;-59
2023/08/27 00:33:41;;;;;;;45.22;5.20;;;;;;;14.59;63.30;100378.63;10251569;28;19977;-60
2023/08/27 00:38:41;;;;;;;11.25;3.25;;;;;;;14.37;63.94;100342.25;10251718;28;20051;-59
2023/08/27 00:43:42;;;;;;;19.85;3.88;;;;;;;14.69;64.01;100382.81;10250945;29;20134;-59
2023/08/27 00:48:44;;;;;;;16.77;3.70;;;;;;;14.80;64.45;100368.94;10250885;29;20531;-59
2023/08/27 00:53:44;;;;;;;13.55;3.78;;;;;;;14.67;64.69;100368.84;10251306;29;20129;-59
2023/08/27 00:58:45;;;;;;;16.58;3.55;;;;;;;14.47;65.06;100365.97;10250804;29;20062;-59
2023/08/27 01:03:46;;;;;;;13.93;3.60;;;;;;;14.45;65.78;100362.66;10250411;29;20047;-59
2023/08/27 01:08:54;;;;;;;14.52;3.40;;;;;;;14.33;65.66;100373.06;10250518;29;20043;-59
2023/08/27 01:14:03;;;;;;;10.30;3.17;;;;;;;13.85;66.43;100333.56;10257149;28;20047;-59
2023/08/27 01:19:13;;;;;;;7.13;3.13;;;;;;;13.66;67.58;100294.13;10257873;29;20054;-59
2023/08/27 01:24:13;;;;;;;7.65;2.95;;;;;;;14.10;66.39;100367.91;10257656;29;20068;-60
2023/08/27 01:29:24;;;;;;;10.27;2.88;;;;;;;14.07;66.37;100357.59;10258377;29;20043;-59
2023/08/27 01:34:25;;;;;;;18.83;3.67;;;;;;;13.98;66.79;100359.56;10257565;28;20043;-59
2023/08/27 01:39:26;;;;;;;15.88;3.00;;;;;;;13.80;66.99;100356.50;10257112;29;20422;-59
2023/08/27 01:44:27;;;;;;;11.65;3.35;;;;;;;13.76;67.35;100360.53;10257327;29;20138;-59
2023/08/27 01:49:28;;;;;;;55.38;4.90;;;;;;;13.64;68.01;100352.19;10257827;29;20044;-60
2023/08/27 01:54:32;;;;;;;66.85;6.07;;;;;;;13.57;69.44;100352.13;10255684;29;20121;-59
2023/08/27 01:59:33;;;;;;;86.40;8.07;;;;;;;13.02;68.14;100271.59;10256844;29;20471;-59
2023/08/27 02:04:34;;;;;;;15.25;3.55;;;;;;;13.08;68.60;100283.38;10256093;29;20045;-59
2023/08/27 02:09:35;;;;;;;24.33;4.15;;;;;;;13.29;68.54;100321.81;10256560;29;20474;-59
2023/08/27 02:14:36;;;;;;;72.70;6.15;;;;;;;13.60;68.47;100357.09;10256699;29;20495;-59
2023/08/27 02:19:37;;;;;;;60.03;6.35;;;;;;;13.28;68.24;100312.97;10255932;29;20047;-59
2023/08/27 02:24:38;;;;;;;62.50;7.57;;;;;;;13.45;68.90;100358.94;10255256;28;20043;-59
2023/08/27 02:29:38;;;;;;;71.72;7.15;;;;;;;13.53;68.65;100368.72;10255378;29;20098;-59
2023/08/27 02:34:39;;;;;;;42.70;5.10;;;;;;;13.48;69.03;100337.22;10255813;28;20043;-59
2023/08/27 02:39:40;;;;;;;73.93;6.57;;;;;;;13.74;68.82;100351.91;10256009;29;20059;-59
2023/08/27 02:44:41;;;;;;;68.13;7.05;;;;;;;13.78;68.77;100351.34;10254623;29;20419;-59
2023/08/27 02:49:42;;;;;;;196.48;13.45;;;;;;;13.74;69.16;100355.41;10255383;29;20455;-59
2023/08/27 02:54:42;;;;;;;157.95;11.27;;;;;;;13.74;69.28;100344.72;10254898;29;20046;-60
2023/08/27 02:59:43;;;;;;;164.05;11.45;;;;;;;13.86;69.21;100339.72;10255072;29;20043;-59
2023/08/27 03:04:44;;;;;;;112.28;7.95;;;;;;;13.75;69.28;100273.47;10253792;29;20102;-60
2023/08/27 03:09:45;;;;;;;92.15;8.88;;;;;;;14.39;68.25;100313.50;10254057;29;20039;-59
2023/08/27 03:14:45;;;;;;;227.50;16.05;;;;;;;15.15;67.36;100350.22;10253425;29;20102;-59
2023/08/27 03:19:46;;;;;;;42.80;6.13;;;;;;;15.29;66.42;100279.69;10254270;29;20082;-59
2023/08/27 03:24:47;;;;;;;32.80;5.82;;;;;;;16.65;64.63;100349.16;10253606;29;20126;-59
2023/08/27 03:29:48;;;;;;;46.88;6.38;;;;;;;17.76;62.15;100324.84;10253597;29;20141;-59
2023/08/27 03:34:48;;;;;;;25.67;4.90;;;;;;;18.67;59.76;100288.63;10253023;28;20040;-60
2023/08/27 03:39:49;;;;;;;34.95;4.15;;;;;;;19.95;56.97;100329.16;10253553;29;20057;-60
2023/08/27 03:44:50;;;;;;;30.55;4.00;;;;;;;20.00;55.21;100200.69;10251663;29;20050;-60
2023/08/27 03:49:51;;;;;;;37.20;4.93;;;;;;;21.48;53.18;100304.84;10252123;29;20035;-60
2023/08/27 03:54:51;;;;;;;55.83;5.53;;;;;;;22.09;51.57;100295.16;10251905;29;20050;-60
2023/08/27 03:59:52;;;;;;;25.33;4.10;;;;;;;21.86;49.75;100234.72;10251327;29;20094;-60
2023/08/27 04:04:53;;;;;;;17.00;3.85;;;;;;;22.00;48.41;100274.97;10251650;29;20101;-60
2023/08/27 04:09:54;;;;;;;12.50;4.40;;;;;;;21.98;48.19;100294.13;10251555;29;20043;-60
2023/08/27 04:14:54;;;;;;;15.70;4.78;;;;;;;22.02;48.00;100278.28;10251396;29;20047;-59
2023/08/27 04:19:57;;;;;;;18.13;3.97;;;;;;;22.40;46.93;100288.34;10250678;29;20047;-60
2023/08/27 04:24:57;;;;;;;14.75;3.10;;;;;;;22.90;46.59;100284.72;10234638;29;20047;-60
2023/08/27 04:29:58;;;;;;;13.60;2.70;;;;;;;23.41;45.59;100273.72;10251119;29;20472;-60
2023/08/27 04:34:59;;;;;;;10.40;2.35;;;;;;;23.64;44.60;100223.81;10250991;28;20047;-60
2023/08/27 04:39:59;;;;;;;14.93;2.28;;;;;;;24.57;43.96;100294.06;10250795;29;20059;-60
2023/08/27 04:45:00;;;;;;;19.15;3.10;;;;;;;24.36;43.40;100233.34;10252346;28;20467;-60
2023/08/27 04:50:01;;;;;;;7.68;2.00;;;;;;;24.64;41.88;100272.09;10258861;29;20035;-60
2023/08/27 04:55:06;;;;;;;7.82;2.17;;;;;;;24.57;41.13;100273.13;10259146;29;20051;-60
2023/08/27 05:00:08;;;;;;;9.93;1.80;;;;;;;24.36;41.59;100293.06;10259276;29;20039;-59
2023/08/27 05:05:09;;;;;;;12.75;2.35;;;;;;;24.14;41.68;100304.00;10259125;29;20487;-59
2023/08/27 05:10:10;;;;;;;9.75;2.00;;;;;;;24.18;42.03;100310.56;10240957;29;20043;-59
2023/08/27 05:15:11;;;;;;;13.98;3.53;;;;;;;24.31;40.92;100299.25;10258387;29;20053;-59
2023/08/27 05:20:12;;;;;;;29.02;4.70;;;;;;;24.59;40.75;100295.44;10257115;29;20576;-60
2023/08/27 05:25:13;;;;;;;16.35;5.10;;;;;;;24.94;39.18;100310.28;10258204;29;20562;-60
2023/08/27 05:30:14;;;;;;;115.20;10.70;;;;;;;25.33;38.78;100309.13;10258501;29;20094;-59
2023/08/27 05:35:15;;;;;;;84.65;12.02;;;;;;;25.72;39.75;100314.94;10257201;28;20051;-59
2023/08/27 05:40:16;;;;;;;19.58;8.50;;;;;;;25.93;39.27;100318.53;10257268;29;20066;-59
2023/08/27 05:45:16;;;;;;;20.33;4.32;;;;;;;26.26;36.97;100305.47;10257026;29;20042;-59
2023/08/27 05:50:17;;;;;;;10.25;2.75;;;;;;;26.28;34.52;100297.84;10257545;29;20120;-59
2023/08/27 05:55:18;;;;;;;36.00;4.10;;;;;;;26.66;35.54;100309.28;10256460;29;20415;-59
2023/08/27 06:00:19;;;;;;;5.35;1.10;;;;;;;26.90;32.99;100312.22;10255832;28;20046;-58
2023/08/27 06:05:20;;;;;;;14.70;1.33;;;;;;;26.84;32.09;100289.63;10256829;29;20046;-59
2023/08/27 06:10:21;;;;;;;9.00;1.23;;;;;;;27.13;31.45;100300.66;10256688;29;20050;-58
2023/08/27 06:15:21;;;;;;;7.80;1.00;;;;;;;27.12;30.28;100303.69;10255349;29;20035;-59
2023/08/27 06:20:22;;;;;;;6.15;1.02;;;;;;;27.07;29.84;100271.78;10256692;29;20051;-59
2023/08/27 06:25:23;;;;;;;16.38;2.17;;;;;;;27.25;30.39;100252.13;10255410;29;20035;-59
2023/08/27 06:30:24;;;;;;;5.13;0.90;;;;;;;27.48;28.46;100316.06;10253788;29;20039;-64
2023/08/27 06:35:24;;;;;;;2.05;0.95;;;;;;;27.48;29.43;100291.53;10254598;28;20051;-66
2023/08/27 06:40:25;;;;;;;1.67;0.90;;;;;;;27.71;28.30;100297.41;10254532;29;20062;-64
2023/08/27 06:45:29;;;;;;;2.22;1.10;;;;;;;27.93;28.70;100294.25;10254355;29;20055;-66
2023/08/27 06:50:30;;;;;;;27.55;2.00;;;;;;;28.04;29.56;100275.88;10253660;29;20040;-65
2023/08/27 06:55:31;;;;;;;3.70;0.90;;;;;;;28.10;28.01;100274.75;10255016;29;20035;-65
2023/08/27 07:00:33;;;;;;;8.52;1.33;;;;;;;28.17;27.88;100264.28;10254565;29;20047;-65
2023/08/27 07:05:33;;;;;;;7.30;1.17;;;;;;;28.27;27.90;100275.13;10254537;29;20047;-65
2023/08/27 07:10:34;;;;;;;5.10;1.60;;;;;;;28.49;27.10;100280.13;10253904;28;20039;-65
2023/08/27 07:15:35;;;;;;;5.25;1.75;;;;;;;28.56;26.65;100261.47;10254778;29;20388;-65
2023/08/27 07:20:36;;;;;;;16.00;1.83;;;;;;;28.85;27.62;100255.13;10253160;29;20047;-64
2023/08/27 07:25:38;;;;;;;5.90;1.13;;;;;;;28.50;27.27;100194.31;10253670;29;20503;-66
2023/08/27 07:30:39;;;;;;;3.03;1.10;;;;;;;29.13;27.34;100259.72;10253831;29;20046;-64
2023/08/27 07:35:39;;;;;;;6.70;1.30;;;;;;;29.09;26.11;100250.47;10251797;28;20052;-67
2023/08/27 07:40:41;;;;;;;5.85;1.80;;;;;;;29.04;27.01;100256.00;10253198;29;20484;-66
2023/08/27 07:45:42;;;;;;;16.23;1.63;;;;;;;28.81;26.33;100200.25;10235202;29;20106;-64
2023/08/27 07:50:42;;;;;;;8.25;1.50;;;;;;;29.24;26.94;100213.09;10251143;29;20047;-66
2023/08/27 07:55:43;;;;;;;8.13;1.80;;;;;;;29.55;26.20;100236.13;10252575;29;20047;-63
2023/08/27 08:00:44;;;;;;;2.85;1.20;;;;;;;29.20;25.46;100212.06;10251668;29;20053;-64
2023/08/27 08:05:48;;;;;;;10.13;1.70;;;;;;;29.67;26.99;100226.69;10252358;29;20046;-61
2023/08/27 08:10:49;;;;;;;9.93;1.70;;;;;;;29.70;26.84;100213.19;10252216;29;20053;-62
2023/08/27 08:15:50;;;;;;;5.15;1.52;;;;;;;29.67;26.23;100213.81;10250802;29;20496;-61
2023/08/27 08:20:56;;;;;;;10.90;1.60;;;;;;;29.91;26.76;100216.41;10250981;28;20134;-63
2023/08/27 08:25:59;;;;;;;19.30;6.18;;;;;;;29.70;27.50;100202.25;10251559;29;20133;-65
2023/08/27 08:31:00;;;;;;;14.57;3.30;;;;;;;29.48;27.56;100139.91;10251718;29;20130;-64
2023/08/27 08:36:00;;;;;;;4.10;1.30;;;;;;;29.28;25.62;100181.28;10251408;28;20059;-61
2023/08/27 08:41:03;;;;;;;3.22;1.35;;;;;;;29.32;25.57;100193.28;10251107;29;20043;-63
2023/08/27 08:46:06;;;;;;;5.18;1.27;;;;;;;29.68;26.50;100176.31;10234217;29;20452;-65
2023/08/27 08:51:07;;;;;;;;;;;;;;;30.03;26.19;100158.41;10251105;29;20048;-66
2023/08/27 08:56:36;;;;;;;2.38;1.10;;;;;;;29.90;25.07;100154.56;10251804;29;20008;-69
2023/08/27 09:01:37;;;;;;;4.60;1.63;;;;;;;29.94;25.43;100122.69;10250660;29;20047;-67
2023/08/27 09:06:38;;;;;;;9.80;1.50;;;;;;;30.12;26.03;100133.88;10249009;29;20101;-64
2023/08/27 09:11:41;;;;;;;11.38;1.88;;;;;;;30.11;25.52;100122.13;10247448;29;20050;-67
2023/08/27 09:16:41;;;;;;;7.50;1.35;;;;;;;30.12;26.05;100073.63;10246839;29;20035;-64
2023/08/27 09:21:43;;;;;;;2.85;1.13;;;;;;;30.31;24.95;100109.97;10248600;29;20586;-66
2023/08/27 09:26:44;;;;;;;12.10;1.42;;;;;;;30.33;25.55;100102.25;10250583;29;20407;-64
2023/08/27 09:31:45;;;;;;;10.95;1.40;;;;;;;30.73;25.98;100104.44;10252723;28;20051;-75
2023/08/27 09:48:03;;;;;;;12.60;1.63;;;;;;;30.80;24.15;100083.72;11103095;23;20060;-70
2023/08/27 09:53:11;;;;;;;6.82;1.17;;;;;;;30.58;23.45;100073.50;10156136;29;20053;-71
2023/08/27 09:58:12;;;;;;;4.70;1.15;;;;;;;30.82;23.31;100065.03;10149270;29;20089;-71
2023/08/27 10:03:20;;;;;;;10.98;2.03;;;;;;;30.31;23.50;99981.19;10177671;29;20044;-71
2023/08/27 10:08:21;;;;;;;20.30;2.55;;;;;;;30.83;23.70;100033.72;10177859;29;20096;-74
2023/08/27 10:13:22;;;;;;;3.10;1.17;;;;;;;30.87;22.93;100033.91;10177526;29;20052;-71
2023/08/27 10:18:24;;;;;;;7.75;1.65;;;;;;;30.89;24.18;100037.97;10177493;29;20071;-71
2023/08/27 10:23:25;;;;;;;16.40;2.15;;;;;;;31.11;23.23;100048.16;10176746;29;20048;-73
2023/08/27 10:28:27;;;;;;;5.63;1.38;;;;;;;31.10;22.46;100029.22;10177071;29;20032;-73
2023/08/27 10:33:28;;;;;;;9.93;1.30;;;;;;;31.00;23.29;99975.44;10156473;29;20040;-73
2023/08/27 10:38:31;;;;;;;7.45;1.10;;;;;;;31.15;23.28;99966.00;10144166;29;20404;-74
2023/08/27 10:43:34;;;;;;;4.72;1.30;;;;;;;31.62;22.70;100026.81;10137203;29;20720;-73
2023/08/27 10:48:37;;;;;;;4.90;1.13;;;;;;;31.54;22.05;100020.16;10146960;29;20136;-73
2023/08/27 10:53:57;;;;;;;8.55;1.25;;;;;;;31.06;21.83;99935.78;10163646;29;20138;-73
2023/08/27 10:58:59;;;;;;;15.32;2.03;;;;;;;31.09;22.15;99946.13;10208739;29;20110;-76
2023/08/27 11:04:09;;;;;;;20.45;1.75;;;;;;;31.25;22.71;99949.25;10197277;29;20407;-74
2023/08/27 11:09:18;;;;;;;21.50;2.20;;;;;;;31.52;23.10;99988.66;10213445;29;20099;-73
2023/08/27 11:14:20;;;;;;;6.72;1.50;;;;;;;31.48;22.09;100004.13;10191475;29;20035;-74
2023/08/27 11:19:47;;;;;;;;;;;;;;;31.64;22.17;99997.09;10190016;29;20075;-74
2023/08/27 11:24:52;;;;;;;10.90;1.50;;;;;;;31.34;22.23;99994.06;10207228;29;20306;-72
2023/08/27 11:29:57;;;;;;;13.52;1.85;;;;;;;31.44;22.38;99987.50;10205024;29;20041;-72
2023/08/27 11:34:58;;;;;;;9.75;1.70;;;;;;;31.07;22.35;99918.19;10212697;29;20085;-72
2023/08/27 11:39:59;;;;;;;16.80;2.63;;;;;;;31.20;22.77;99951.34;10205523;29;20074;-72
2023/08/27 11:45:00;;;;;;;9.10;1.40;;;;;;;31.16;22.08;99937.44;10195518;29;20042;-73
2023/08/27 11:50:07;;;;;;;12.30;1.70;;;;;;;31.28;22.13;99956.88;10212310;29;20058;-80
2023/08/27 11:55:09;;;;;;;10.23;1.48;;;;;;;31.13;21.77;99927.91;10210920;29;20273;-78
2023/08/27 12:00:11;;;;;;;26.00;2.75;;;;;;;30.54;22.06;99806.59;10203162;29;20043;-73
2023/08/27 12:05:13;;;;;;;11.57;1.70;;;;;;;31.02;22.51;99874.47;10204289;29;20055;-78
2023/08/27 12:10:14;;;;;;;11.13;1.55;;;;;;;31.45;22.51;99930.66;10211364;29;20071;-78
2023/08/27 12:15:15;;;;;;;5.80;1.25;;;;;;;31.44;22.35;99931.75;10200590;29;20075;-78
2023/08/27 12:20:32;;;;;;;15.10;1.75;;;;;;;31.45;22.92;99925.97;10211094;29;20472;-78
2023/08/27 12:25:45;;;;;;;4.13;1.48;;;;;;;30.96;21.77;99856.50;10207981;29;20134;-78
2023/08/27 12:30:46;;;;;;;;;;;;;;;31.58;22.88;99916.00;10193116;29;20516;-78
2023/08/27 12:35:47;;;;;;;8.40;1.48;;;;;;;31.24;22.63;99909.25;10163103;29;20010;-78
2023/08/27 12:40:48;;;;;;;6.13;1.55;;;;;;;30.58;21.96;99831.47;10173239;29;20047;-77
2023/08/27 12:45:50;;;;;;;4.20;1.50;;;;;;;30.59;21.05;99852.25;10172898;29;20066;-77
2023/08/27 12:50:52;;;;;;;5.57;1.30;;;;;;;31.11;21.74;99890.94;10174579;29;20130;-77
2023/08/27 12:55:53;;;;;;;12.50;2.63;;;;;;;30.07;21.75;99720.41;10203063;29;20134;-78
2023/08/27 13:00:53;;;;;;;7.22;1.80;;;;;;;30.79;22.23;99816.09;10210751;29;20191;-80
2023/08/27 13:05:58;;;;;;;5.57;1.40;;;;;;;31.11;21.67;99896.41;10212298;29;20098;-78
2023/08/27 13:10:59;;;;;;;9.93;1.65;;;;;;;30.66;22.10;99827.94;10216640;29;20503;-78
2023/08/27 13:16:00;;;;;;;6.85;1.70;;;;;;;30.95;22.14;99882.31;10133889;29;20389;-76
2023/08/27 13:21:01;;;;;;;18.65;1.80;;;;;;;30.93;21.31;99863.44;10140242;29;20044;-70
2023/08/27 13:26:01;;;;;;;21.52;2.60;;;;;;;30.95;22.74;99868.59;10142123;29;20040;-70
2023/08/27 13:31:02;;;;;;;8.40;2.30;;;;;;;30.83;23.01;99862.91;10148118;29;20486;-71
2023/08/27 13:36:03;;;;;;;22.35;2.20;;;;;;;29.93;22.90;99718.53;10139493;29;20037;-70
2023/08/27 13:41:04;;;;;;;16.80;2.03;;;;;;;30.41;22.83;99816.50;10150234;29;20048;-70
2023/08/27 13:46:05;;;;;;;5.28;1.35;;;;;;;30.48;22.28;99849.78;10138838;29;20065;-70
2023/08/27 13:51:06;;;;;;;10.48;1.40;;;;;;;30.62;21.74;99868.06;10149791;29;20524;-69
2023/08/27 13:56:07;;;;;;;5.95;1.90;;;;;;;30.59;21.68;99857.75;10147624;29;20092;-69
2023/08/27 14:01:08;;;;;;;15.63;2.42;;;;;;;30.52;21.95;99851.91;10158317;29;20076;-69
2023/08/27 14:06:09;;;;;;;25.20;3.35;;;;;;;29.97;21.90;99781.69;10145211;29;20043;-70
2023/08/27 14:11:09;;;;;;;18.45;2.15;;;;;;;30.20;23.05;99829.09;10138579;29;20485;-70
2023/08/27 14:16:11;;;;;;;7.38;1.40;;;;;;;30.20;23.17;99867.44;10154532;29;20048;-80
2023/08/27 14:21:13;;;;;;;43.67;2.53;;;;;;;30.01;23.39;99856.66;10137239;29;20075;-80
2023/08/27 14:26:14;;;;;;;18.40;1.70;;;;;;;29.97;22.27;99850.16;10138170;29;20599;-77
2023/08/27 14:31:14;;;;;;;31.48;3.28;;;;;;;29.71;22.51;99825.31;10137727;29;20053;-77
2023/08/27 14:36:15;;;;;;;12.55;1.52;;;;;;;29.81;22.75;99860.66;10147233;29;20048;-79
2023/08/27 14:41:16;;;;;;;200.25;14.15;;;;;;;29.64;23.03;99861.28;10137376;29;20072;-81
2023/08/27 14:46:17;;;;;;;134.73;11.90;;;;;;;29.00;23.88;99792.81;10119422;29;20410;-81
2023/08/27 14:51:18;;;;;;;157.75;12.52;;;;;;;29.23;22.96;99844.91;10151186;29;20052;-79
2023/08/27 14:56:19;;;;;;;20.98;2.90;;;;;;;28.28;23.94;99732.41;10155768;29;20127;-78
2023/08/27 15:01:20;;;;;;;70.97;5.63;;;;;;;28.87;24.31;99859.25;10175363;29;20565;-77
2023/08/27 15:06:21;;;;;;;147.65;11.85;;;;;;;27.84;24.61;99739.13;10141409;29;20535;-77
2023/08/27 15:11:21;;;;;;;66.28;5.32;;;;;;;27.98;25.28;99794.59;10134769;29;20049;-79
2023/08/27 15:16:22;;;;;;;196.77;14.00;;;;;;;27.88;26.45;99811.97;10135700;29;20563;-79
2023/08/27 15:21:23;;;;;;;208.13;14.35;;;;;;;27.89;26.42;99854.50;10172537;29;20040;-78
2023/08/27 15:26:24;;;;;;;389.13;26.60;;;;;;;27.22;26.81;99770.00;10174566;29;20164;-78
2023/08/27 15:31:25;;;;;;;56.83;6.53;;;;;;;27.49;26.74;99855.84;10175314;29;20044;-78
2023/08/27 15:36:26;;;;;;;58.35;6.03;;;;;;;27.15;28.36;99854.06;10174982;29;20051;-78
2023/08/27 15:41:30;;;;;;;220.32;13.30;;;;;;;26.39;31.53;99812.81;10157220;29;20044;-78
2023/08/27 15:46:31;;;;;;;101.88;9.35;;;;;;;26.18;32.40;99861.16;10173799;29;20060;-78
2023/08/27 15:51:32;;;;;;;39.72;5.65;;;;;;;25.81;33.26;99863.53;10151292;29;20409;-78
2023/08/27 15:56:32;;;;;;;47.22;6.93;;;;;;;25.55;33.35;99873.72;10135155;29;20564;-79
2023/08/27 16:01:33;;;;;;;34.05;6.13;;;;;;;24.76;33.22;99789.97;10135894;29;20043;-77
2023/08/27 16:06:34;;;;;;;29.98;7.63;;;;;;;24.83;33.89;99844.03;10135047;29;20072;-78
2023/08/27 16:11:35;;;;;;;35.75;9.23;;;;;;;24.69;34.65;99870.13;10117477;29;20143;-77
2023/08/27 16:16:36;;;;;;;53.92;11.23;;;;;;;24.44;35.36;99873.66;10134337;29;20041;-78
2023/08/27 16:21:37;;;;;;;104.35;30.77;;;;;;;24.14;37.21;99881.50;10133545;29;20044;-77
2023/08/27 16:26:38;;;;;;;119.03;48.17;;;;;;;23.84;38.38;99871.38;10133888;29;20052;-77
2023/08/27 16:31:38;;;;;;;144.75;40.35;;;;;;;23.11;40.09;99791.91;10134303;29;20096;-78
2023/08/27 16:36:39;;;;;;;101.03;35.47;;;;;;;23.40;40.88;99874.44;10133902;29;20055;-77
2023/08/27 16:41:40;;;;;;;110.45;35.22;;;;;;;22.41;42.27;99754.16;10135804;29;20492;-77
2023/08/27 16:46:42;;;;;;;84.78;29.80;;;;;;;23.07;41.89;99900.00;10124662;29;20497;-78
2023/08/27 16:51:42;;;;;;;91.20;28.17;;;;;;;22.89;43.79;99897.69;10141579;29;20401;-77
2023/08/27 16:56:43;;;;;;;119.10;30.40;;;;;;;22.37;43.15;99846.91;10141145;29;20048;-76
2023/08/27 17:01:44;;;;;;;67.03;23.50;;;;;;;22.70;42.48;99911.59;10139385;29;20048;-78
2023/08/27 17:06:44;;;;;;;77.68;20.48;;;;;;;;;;10159178;29;20052;-77
2023/08/27 17:11:45;;;;;;;77.70;18.90;;;;;;;22.41;43.27;99897.56;10174835;29;20040;-76
2023/08/27 17:16:46;;;;;;;63.13;18.13;;;;;;;22.36;43.53;99910.25;10167188;29;20049;-76
2023/08/27 17:21:47;;;;;;;56.97;13.88;;;;;;;22.13;42.16;99890.50;10152356;29;20044;-80
2023/08/27 17:26:47;;;;;;;57.38;12.57;;;;;;;21.43;42.14;99782.16;10148869;29;20191;-77
2023/08/27 17:31:48;;;;;;;21.63;7.47;;;;;;;22.22;40.01;99891.69;10144025;29;20040;-77
2023/08/27 17:36:49;;;;;;;8.82;3.20;;;;;;;22.58;36.57;99902.84;10140367;29;20044;-76
2023/08/27 17:41:50;;;;;;;15.30;2.55;;;;;;;22.82;35.04;99892.47;10123535;29;20564;-77
2023/08/27 17:46:51;;;;;;;9.30;1.90;;;;;;;22.64;33.86;99830.63;10151417;29;20202;-78
2023/08/27 17:51:52;;;;;;;4.15;1.67;;;;;;;22.90;32.66;99828.88;10186037;29;20071;-77
2023/08/27 17:56:53;;;;;;;9.18;1.73;;;;;;;23.39;32.34;99891.78;10178719;29;20083;-77
2023/08/27 18:01:54;;;;;;;9.38;1.83;;;;;;;23.39;31.91;99890.94;10178100;29;20657;-77
2023/08/27 18:06:54;;;;;;;7.85;1.33;;;;;;;23.29;31.36;99869.22;10160408;29;20186;-77
2023/08/27 18:11:55;;;;;;;7.82;1.45;;;;;;;22.95;31.63;99805.41;10177637;29;20078;-77
2023/08/27 18:16:56;;;;;;;7.47;1.67;;;;;;;23.41;31.20;99875.25;10177986;29;20040;-77
2023/08/27 18:21:57;;;;;;;8.43;1.25;;;;;;;23.02;31.22;99816.00;10177918;29;20043;-76
2023/08/27 18:26:58;;;;;;;3.33;1.17;;;;;;;23.42;31.12;99882.28;10177676;29;20480;-77
2023/08/27 18:31:59;;;;;;;7.47;1.40;;;;;;;23.35;31.20;99873.59;10177378;29;20075;-77
2023/08/27 18:37:00;;;;;;;7.35;1.10;;;;;;;23.24;31.09;99865.44;10176375;29;20082;-77
2023/08/27 18:42:00;;;;;;;12.95;1.42;;;;;;;22.90;31.50;99818.06;10159241;29;20044;-75
2023/08/27 18:47:01;;;;;;;10.23;1.80;;;;;;;23.21;31.70;99884.94;10176124;29;20062;-78
2023/08/27 18:52:02;;;;;;;7.85;1.70;;;;;;;23.09;32.52;99900.53;10175642;29;20118;-77
2023/08/27 18:57:03;;;;;;;10.35;1.60;;;;;;;22.41;32.70;99805.56;10159063;29;20072;-77
2023/08/27 19:02:05;;;;;;;7.88;1.88;;;;;;;22.82;32.99;99892.47;10176310;29;20048;-77
2023/08/27 19:07:05;;;;;;;18.42;2.55;;;;;;;22.73;32.79;99878.59;10175690;29;20100;-77
2023/08/27 19:12:07;;;;;;;13.15;2.08;;;;;;;22.51;33.28;99853.53;10174940;29;20080;-77
2023/08/27 19:17:07;;;;;;;16.65;2.03;;;;;;;22.60;33.56;99873.63;10174697;29;20208;-77
2023/08/27 19:22:08;;;;;;;14.70;1.90;;;;;;;22.27;34.04;99845.75;10175606;29;20135;-77
2023/08/27 19:27:09;;;;;;;15.13;2.00;;;;;;;22.24;34.54;99859.00;10175419;29;20512;-77
2023/08/27 19:32:11;;;;;;;9.73;1.95;;;;;;;22.08;35.02;99860.72;10174140;29;20416;-77
2023/08/27 19:37:12;;;;;;;7.85;1.60;;;;;;;22.05;34.42;99867.44;10158327;29;20046;-77
2023/08/27 19:42:13;;;;;;;10.07;1.70;;;;;;;22.16;33.61;99862.94;10174575;29;20080;-77
2023/08/27 19:47:13;;;;;;;30.13;2.38;;;;;;;22.06;33.73;99852.03;10173424;29;20135;-76
2023/08/27 19:52:14;;;;;;;8.98;2.33;;;;;;;22.15;34.46;99866.72;10174571;29;20169;-77
2023/08/27 19:57:15;;;;;;;9.57;1.75;;;;;;;22.08;34.58;99866.13;10173262;29;20048;-76
2023/08/27 20:02:16;;;;;;;13.50;1.90;;;;;;;21.64;35.12;99812.13;10173316;29;20059;-77
2023/08/27 20:07:18;;;;;;;9.90;2.10;;;;;;;21.68;35.74;99845.66;10173468;29;20108;-76
2023/08/27 20:12:19;;;;;;;20.67;2.50;;;;;;;21.63;36.48;99854.56;10173783;29;20047;-77
2023/08/27 20:17:20;;;;;;;9.35;1.98;;;;;;;21.63;36.87;99865.38;10172004;29;20127;-76
2023/08/27 20:22:21;;;;;;;4.65;1.50;;;;;;;21.53;37.08;99851.72;10173232;29;20044;-77
2023/08/27 20:27:22;;;;;;;9.68;1.83;;;;;;;21.48;37.96;99870.59;10172614;29;20074;-77
2023/08/27 20:32:22;;;;;;;11.20;1.88;;;;;;;21.32;38.66;99860.63;10172715;29;20048;-76
2023/08/27 20:37:23;;;;;;;9.77;2.00;;;;;;;20.85;39.11;99780.88;10156440;29;20044;-77
2023/08/27 20:42:24;;;;;;;10.32;2.25;;;;;;;20.42;39.97;99727.59;10172851;29;20040;-77
2023/08/27 20:47:25;;;;;;;5.18;1.75;;;;;;;21.15;40.27;99874.19;10172826;29;20087;-76
2023/08/27 20:52:26;;;;;;;10.30;2.08;;;;;;;20.74;41.14;99817.69;10173211;29;20551;-77
2023/08/27 20:57:27;;;;;;;5.57;1.52;;;;;;;20.94;41.70;99844.19;10172476;29;20408;-77
2023/08/27 21:02:27;;;;;;;8.35;1.60;;;;;;;21.02;42.81;99852.91;10172501;29;20040;-77
2023/08/27 21:07:28;;;;;;;10.55;1.90;;;;;;;20.82;43.12;99810.25;10172474;29;20052;-78
2023/08/27 21:12:29;;;;;;;10.00;1.70;;;;;;;20.27;43.59;99717.41;10172263;29;20071;-76
2023/08/27 21:17:30;;;;;;;7.75;1.80;;;;;;;21.06;44.30;99827.88;10172280;29;20481;-77
2023/08/27 21:22:31;;;;;;;9.38;1.40;;;;;;;21.02;44.61;99829.44;10172166;29;20071;-77
2023/08/27 21:27:31;;;;;;;6.25;1.40;;;;;;;20.84;45.35;99803.53;10173910;29;20036;-77
2023/08/27 21:32:32;;;;;;;5.55;1.75;;;;;;;21.00;45.80;99833.44;10178965;29;20070;-77
2023/08/27 21:37:33;;;;;;;5.78;1.67;;;;;;;21.00;46.15;99825.34;10179112;29;20100;-78
2023/08/27 21:42:34;;;;;;;8.93;1.75;;;;;;;21.03;46.28;99819.44;10178973;29;20400;-77
2023/08/27 21:47:35;;;;;;;10.65;2.15;;;;;;;20.67;46.59;99751.47;10178746;29;20151;-77
2023/08/27 21:52:36;;;;;;;3.85;1.67;;;;;;;20.98;46.83;99802.09;10178065;29;20048;-76
2023/08/27 21:57:37;;;;;;;7.53;1.60;;;;;;;20.45;47.22;99724.41;10178777;29;20051;-77
2023/08/27 22:02:38;;;;;;;14.05;1.77;;;;;;;20.46;47.65;99718.78;10178108;29;20524;-77
2023/08/27 22:07:39;;;;;;;4.22;1.60;;;;;;;20.87;48.04;99786.84;10178133;29;20036;-76
2023/08/27 22:12:40;;;;;;;6.50;1.65;;;;;;;20.93;48.17;99788.53;10177149;29;20126;-76
2023/08/27 22:17:40;;;;;;;12.95;1.50;;;;;;;20.82;48.42;99761.66;10177354;29;20262;-76
2023/08/27 22:22:41;;;;;;;13.98;2.00;;;;;;;20.74;49.51;99765.59;10160483;29;20040;-76
2023/08/27 22:27:42;;;;;;;4.78;1.73;;;;;;;20.78;49.70;99785.63;10176845;29;20040;-76
2023/08/27 22:32:43;;;;;;;3.20;1.42;;;;;;;20.69;50.17;99785.22;10177017;29;20051;-76
2023/08/27 22:37:44;;;;;;;12.30;2.00;;;;;;;20.50;50.40;99760.38;10177139;29;20047;-76
2023/08/27 22:42:44;;;;;;;11.93;2.22;;;;;;;20.49;50.88;99766.84;10176594;29;20055;-76
2023/08/27 22:47:45;;;;;;;35.45;2.40;;;;;;;20.26;51.48;99756.25;10176121;29;20067;-76
2023/08/27 22:52:46;;;;;;;7.18;1.80;;;;;;;20.32;52.05;99784.94;10175837;29;20047;-76
2023/08/27 22:57:47;;;;;;;4.00;1.52;;;;;;;20.02;52.09;99758.28;10175430;29;20493;-76
2023/08/27 23:02:48;;;;;;;5.35;1.88;;;;;;;19.99;53.21;99774.94;10175808;29;20039;-76
2023/08/27 23:07:48;;;;;;;6.60;2.13;;;;;;;19.83;53.37;99774.69;10176297;29;20048;-77
2023/08/27 23:12:50;;;;;;;11.52;1.88;;;;;;;19.26;54.04;99699.22;10175845;29;20640;-76
2023/08/27 23:17:51;;;;;;;8.27;2.13;;;;;;;19.25;54.89;99710.25;10175444;29;20050;-76